Time;durP1;ratioP1;P1;durP2;ratioP2;P2;SDS_P1;SDS_P2;PMS_P1;PMS_P2;Temp;Humidity;BMP_temperature;BMP_pressure;BME280_temperature;BME280_humidity;BME280_pressure;Samples;Min_cycle;Max_cycle;Signal;HPM_P1;HPM_P2
2023/08/20 00:01:43;;;;;;;4.82;0.75;;;;;;;18.38;100.00;101170.84;5030186;28;21534;-46
2023/08/20 00:04:09;;;;;;;1.27;0.30;;;;;;;18.40;100.00;101164.22;5032615;28;20529;-48
2023/08/20 00:06:35;;;;;;;4.90;1.02;;;;;;;18.41;100.00;101179.28;5024404;28;20037;-48
2023/08/20 00:09:00;;;;;;;4.15;1.15;;;;;;;18.59;100.00;101180.31;5031554;28;20029;-44
2023/08/20 00:11:26;;;;;;;3.88;0.93;;;;;;;18.73;100.00;101179.88;5031334;28;20501;-46
2023/08/20 00:13:51;;;;;;;0.65;0.20;;;;;;;18.83;100.00;101184.75;5030036;28;20029;-47
2023/08/20 00:16:17;;;;;;;2.67;0.52;;;;;;;18.95;100.00;101195.53;5037634;28;20112;-49
2023/08/20 00:18:42;;;;;;;3.33;0.82;;;;;;;18.99;100.00;101199.41;5033053;28;20041;-48
2023/08/20 00:21:08;;;;;;;1.15;0.10;;;;;;;19.07;100.00;101192.88;5034205;28;20025;-48
2023/08/20 00:23:37;;;;;;;4.10;0.82;;;;;;;19.12;100.00;101196.50;5035422;28;20559;-47
2023/08/20 00:26:03;;;;;;;5.25;0.52;;;;;;;19.35;100.00;101203.78;5028003;28;20037;-45
2023/08/20 00:28:28;;;;;;;7.10;1.08;;;;;;;19.56;100.00;101206.97;5033265;28;20033;-44
2023/08/20 00:30:54;;;;;;;10.10;1.15;;;;;;;19.76;100.00;101209.34;5033850;28;20068;-45
2023/08/20 00:33:19;;;;;;;4.13;0.68;;;;;;;20.07;100.00;101199.28;5030067;28;20029;-49
2023/08/20 00:35:44;;;;;;;4.72;0.75;;;;;;;20.15;100.00;101213.19;5028877;28;20021;-47
2023/08/20 00:38:10;;;;;;;4.82;1.20;;;;;;;20.21;100.00;101211.41;5035951;28;20041;-51
2023/08/20 00:40:35;;;;;;;11.82;1.90;;;;;;;20.23;100.00;101209.28;5033560;28;20029;-49
2023/08/20 00:43:01;;;;;;;4.28;0.80;;;;;;;20.27;100.00;101205.91;5031373;28;20470;-47
2023/08/20 00:45:26;;;;;;;9.02;1.77;;;;;;;20.37;100.00;101216.06;5032143;28;20104;-46
2023/08/20 00:47:52;;;;;;;6.95;0.90;;;;;;;20.25;100.00;101218.78;5037328;28;20033;-43
2023/08/20 00:50:19;;;;;;;6.68;1.48;;;;;;;20.04;100.00;101222.91;5032006;28;20027;-48
2023/08/20 00:52:45;;;;;;;6.50;1.63;;;;;;;20.49;100.00;101229.50;5037967;28;20036;-48
2023/08/20 00:55:12;;;;;;;4.97;2.00;;;;;;;20.46;100.00;101227.28;5031564;28;20138;-48
2023/08/20 00:57:39;;;;;;;5.60;1.63;;;;;;;20.49;100.00;101235.69;5037558;28;20131;-48
2023/08/20 01:00:07;;;;;;;5.55;1.05;;;;;;;20.67;100.00;101231.22;5027368;28;20040;-45
2023/08/20 01:02:33;;;;;;;8.00;2.40;;;;;;;20.73;100.00;101226.75;5026777;28;20041;-50
2023/08/20 01:05:00;;;;;;;5.40;1.05;;;;;;;20.71;100.00;101232.38;5034197;28;20140;-44
2023/08/20 01:07:54;;;;;;;7.15;0.68;;;;;;;20.71;100.00;101231.56;5034684;28;20036;-46
2023/08/20 01:10:29;;;;;;;8.95;1.40;;;;;;;20.77;100.00;101225.22;5028632;28;20030;-46
2023/08/20 01:12:55;;;;;;;7.20;1.58;;;;;;;20.74;100.00;101223.81;5030385;28;20029;-44
2023/08/20 01:15:21;;;;;;;5.55;1.33;;;;;;;20.63;100.00;101228.19;5035068;28;20373;-46
2023/08/20 01:17:48;;;;;;;4.35;1.38;;;;;;;20.60;100.00;101222.44;5027164;28;20025;-46
2023/08/20 01:20:15;;;;;;;10.45;1.10;;;;;;;20.73;100.00;101224.03;5032224;28;20025;-48
2023/08/20 01:22:59;;;;;;;8.30;1.88;;;;;;;20.97;100.00;101219.38;5031543;28;20032;-46
2023/08/20 01:25:52;;;;;;;5.90;1.55;;;;;;;20.94;100.00;101226.09;5032684;28;20583;-48
2023/08/20 01:28:29;;;;;;;5.70;1.15;;;;;;;20.89;100.00;101223.28;5029338;28;20622;-48
2023/08/20 01:30:57;;;;;;;3.95;1.05;;;;;;;20.87;100.00;101226.22;5033167;28;20045;-43
2023/08/20 01:33:24;;;;;;;2.95;0.70;;;;;;;20.75;100.00;101221.94;5032757;28;20037;-46
2023/08/20 01:35:50;;;;;;;5.78;0.73;;;;;;;20.79;100.00;101223.09;5029403;28;20033;-45
2023/08/20 01:38:15;;;;;;;7.75;0.82;;;;;;;20.78;100.00;101221.44;5037765;28;20055;-48
2023/08/20 01:40:41;;;;;;;3.90;1.27;;;;;;;20.79;100.00;101223.91;5027792;28;20037;-46
2023/08/20 01:43:07;;;;;;;2.33;1.25;;;;;;;20.70;100.00;101222.66;5031794;28;20080;-48
2023/08/20 01:45:32;;;;;;;8.30;0.70;;;;;;;20.70;100.00;101230.72;5033771;28;20068;-48
2023/08/20 01:47:57;;;;;;;6.38;0.73;;;;;;;20.47;100.00;101231.59;5028929;28;20514;-47
2023/08/20 01:50:23;;;;;;;6.82;0.88;;;;;;;20.87;100.00;101230.78;5036060;28;20032;-47
2023/08/20 01:52:48;;;;;;;8.18;1.08;;;;;;;20.85;100.00;101227.50;5026690;28;20480;-46
2023/08/20 01:55:14;;;;;;;4.40;0.85;;;;;;;20.83;100.00;101235.03;5035439;28;20037;-44
2023/08/20 01:57:39;;;;;;;13.10;2.50;;;;;;;20.77;100.00;101236.00;5030783;28;20033;-45
2023/08/20 02:00:05;;;;;;;5.32;1.38;;;;;;;20.73;100.00;101241.06;5033934;28;20048;-50
2023/08/20 02:02:31;;;;;;;3.55;0.93;;;;;;;20.67;100.00;101242.81;5035201;28;20045;-44
2023/08/20 02:04:56;;;;;;;6.93;0.70;;;;;;;20.73;100.00;101241.06;5028901;28;20056;-45
2023/08/20 02:07:21;;;;;;;11.35;2.63;;;;;;;20.75;100.00;101236.22;5027285;28;20032;-50
2023/08/20 02:09:47;;;;;;;6.60;1.25;;;;;;;20.78;100.00;101238.47;5032705;28;20064;-48
2023/08/20 02:12:12;;;;;;;3.60;0.60;;;;;;;20.74;100.00;101236.47;5036166;28;20048;-50
2023/08/20 02:14:37;;;;;;;10.65;1.55;;;;;;;20.67;100.00;101234.72;5037427;28;20037;-46
2023/08/20 02:17:03;;;;;;;6.07;1.27;;;;;;;20.75;100.00;101244.31;5041255;28;20474;-46
2023/08/20 02:19:28;;;;;;;4.00;0.60;;;;;;;20.78;100.00;101243.00;5038423;28;20120;-45
2023/08/20 02:21:54;;;;;;;8.35;1.13;;;;;;;20.55;100.00;101233.13;5037843;28;20061;-47
2023/08/20 02:24:19;;;;;;;4.72;1.83;;;;;;;20.53;100.00;101229.84;5042894;28;20063;-45
2023/08/20 02:26:45;;;;;;;3.72;0.65;;;;;;;20.63;100.00;101232.78;5043043;28;20514;-47
2023/08/20 02:29:10;;;;;;;6.40;0.47;;;;;;;20.77;100.00;101231.41;5039004;28;20028;-47
2023/08/20 02:31:36;;;;;;;14.23;2.03;;;;;;;20.63;100.00;101233.59;5043782;28;20037;-47
2023/08/20 02:34:01;;;;;;;5.45;1.23;;;;;;;20.61;100.00;101229.50;5034631;28;20029;-48
2023/08/20 02:36:26;;;;;;;6.35;0.55;;;;;;;20.66;100.00;101234.97;5040444;28;20035;-47
2023/08/20 02:38:52;;;;;;;11.20;0.82;;;;;;;20.79;100.00;101232.00;5046155;28;20091;-48
2023/08/20 02:41:17;;;;;;;11.30;2.45;;;;;;;20.87;100.00;101234.31;5043175;28;20037;-47
2023/08/20 02:43:42;;;;;;;5.70;1.13;;;;;;;20.84;100.00;101231.28;5042463;28;20524;-48
2023/08/20 02:46:08;;;;;;;1.38;0.20;;;;;;;20.80;100.00;101230.13;5038932;28;20444;-50
2023/08/20 02:48:33;;;;;;;4.50;0.63;;;;;;;21.09;100.00;101236.28;5041684;28;20060;-49
2023/08/20 02:50:59;;;;;;;4.75;0.60;;;;;;;21.27;100.00;101235.25;5041539;28;20079;-46
2023/08/20 02:53:24;;;;;;;14.73;1.00;;;;;;;21.29;100.00;101238.53;5039218;28;20032;-48
2023/08/20 02:55:49;;;;;;;7.28;1.00;;;;;;;21.22;100.00;101236.00;5033256;28;20055;-46
2023/08/20 02:58:15;;;;;;;5.93;1.77;;;;;;;21.26;100.00;101239.03;5040277;28;20075;-50
2023/08/20 03:00:42;;;;;;;4.05;0.85;;;;;;;21.24;100.00;101231.16;5034012;28;20107;-48
2023/08/20 03:03:08;;;;;;;5.15;0.73;;;;;;;21.25;100.00;101235.53;5038318;28;21760;-52
2023/08/20 03:05:34;;;;;;;2.90;0.77;;;;;;;21.19;100.00;101235.66;5040699;28;20095;-45
2023/08/20 03:08:00;;;;;;;1.17;0.43;;;;;;;20.99;100.00;101238.81;5036523;28;20489;-46
2023/08/20 03:10:27;;;;;;;2.75;0.43;;;;;;;20.90;100.00;101236.50;5037837;28;20044;-49
2023/08/20 03:12:52;;;;;;;3.97;0.20;;;;;;;20.77;100.00;101234.13;5032470;28;20095;-46
2023/08/20 03:15:17;;;;;;;8.20;0.63;;;;;;;20.51;100.00;101240.03;5032894;28;20523;-46
2023/08/20 03:17:43;;;;;;;5.18;1.88;;;;;;;20.48;100.00;101241.31;5030050;28;20056;-47
2023/08/20 03:20:09;;;;;;;5.40;1.05;;;;;;;20.10;100.00;101236.47;5034523;28;20051;-51
2023/08/20 03:22:37;;;;;;;5.03;0.38;;;;;;;19.98;100.00;101240.00;5037120;28;20032;-45
2023/08/20 03:25:03;;;;;;;5.03;0.35;;;;;;;20.09;100.00;101241.06;5034878;28;20104;-52
2023/08/20 03:27:28;;;;;;;4.88;0.70;;;;;;;20.17;100.00;101239.88;5041876;28;20120;-47
2023/08/20 03:29:53;;;;;;;2.55;0.40;;;;;;;20.16;100.00;101236.38;5037077;28;20068;-47
2023/08/20 03:32:19;;;;;;;1.20;0.68;;;;;;;20.09;100.00;101235.66;5038563;28;20064;-47
2023/08/20 03:34:44;;;;;;;2.85;0.60;;;;;;;19.96;100.00;101236.72;5039763;28;20477;-45
2023/08/20 03:37:09;;;;;;;2.47;0.50;;;;;;;19.91;100.00;101247.38;5038972;28;20029;-49
2023/08/20 03:39:35;;;;;;;2.13;0.73;;;;;;;19.90;100.00;101250.28;5037752;28;20506;-44
2023/08/20 03:42:00;;;;;;;5.47;0.55;;;;;;;19.85;100.00;101244.78;5037537;28;20127;-45
2023/08/20 03:44:26;;;;;;;2.50;0.70;;;;;;;19.80;100.00;101249.03;5040258;28;20390;-47
2023/08/20 03:46:51;;;;;;;2.55;0.63;;;;;;;19.83;100.00;101250.44;5036584;28;20475;-48
2023/08/20 03:49:16;;;;;;;2.88;0.35;;;;;;;19.79;100.00;101255.44;5035482;28;20039;-46
2023/08/20 03:51:42;;;;;;;4.85;0.63;;;;;;;19.74;100.00;101263.38;5035308;28;20372;-47
2023/08/20 03:54:11;;;;;;;9.63;0.95;;;;;;;19.65;100.00;101261.28;5031427;28;20462;-47
2023/08/20 03:56:36;;;;;;;2.58;1.70;;;;;;;19.68;100.00;101267.03;5037553;28;20033;-47
2023/08/20 03:59:02;;;;;;;3.70;0.30;;;;;;;19.59;100.00;101258.44;5028621;28;20102;-46
2023/08/20 04:01:27;;;;;;;1.75;0.32;;;;;;;19.54;100.00;101258.31;5048242;28;20063;-46
2023/08/20 04:03:53;;;;;;;4.70;1.55;;;;;;;19.64;100.00;101260.41;5044310;28;20049;-50
2023/08/20 04:06:18;;;;;;;2.50;0.82;;;;;;;19.69;100.00;101257.88;5030238;28;20035;-50
2023/08/20 04:08:43;;;;;;;2.10;0.20;;;;;;;19.76;100.00;101253.22;5040459;28;20033;-46
2023/08/20 04:11:08;;;;;;;4.32;0.60;;;;;;;19.73;100.00;101259.06;5032714;28;20387;-48
2023/08/20 04:13:34;;;;;;;5.72;1.15;;;;;;;19.73;100.00;101264.44;5033327;28;20299;-47
2023/08/20 04:15:59;;;;;;;1.55;0.30;;;;;;;19.79;100.00;101266.19;5036219;28;20067;-47
2023/08/20 04:18:25;;;;;;;2.72;1.38;;;;;;;19.70;100.00;101264.94;5038069;28;20152;-45
2023/08/20 04:20:54;;;;;;;13.70;1.45;;;;;;;19.71;100.00;101271.13;5031267;28;20024;-50
2023/08/20 04:23:20;;;;;;;3.80;0.57;;;;;;;19.73;100.00;101274.41;5039240;28;20393;-44
2023/08/20 04:25:46;;;;;;;10.50;1.15;;;;;;;20.02;100.00;101278.03;5032360;28;20534;-45
2023/08/20 04:28:12;;;;;;;6.75;0.40;;;;;;;20.09;100.00;101275.22;5038137;28;20045;-48
2023/08/20 04:30:37;;;;;;;5.53;1.33;;;;;;;20.23;100.00;101272.03;5043387;28;20029;-49
2023/08/20 04:33:03;;;;;;;4.78;1.00;;;;;;;20.25;100.00;101283.41;5038913;28;20031;-45
2023/08/20 04:35:29;;;;;;;6.55;1.48;;;;;;;20.48;100.00;101284.44;5031833;28;20033;-45
2023/08/20 04:37:54;;;;;;;8.57;3.10;;;;;;;20.45;100.00;101282.22;5037957;28;20402;-47
2023/08/20 04:40:19;;;;;;;7.75;0.95;;;;;;;20.55;100.00;101287.00;5030706;28;20068;-45
2023/08/20 04:42:45;;;;;;;3.30;0.80;;;;;;;20.60;100.00;101300.56;5040691;28;20041;-47
2023/08/20 04:45:10;;;;;;;8.10;1.13;;;;;;;20.54;100.00;101299.66;5042632;28;20075;-45
2023/08/20 04:47:37;;;;;;;4.75;2.13;;;;;;;20.59;100.00;101299.78;5035371;28;20113;-45
2023/08/20 04:50:02;;;;;;;6.28;0.88;;;;;;;20.59;100.00;101299.78;5041947;28;20493;-44
2023/08/20 04:52:27;;;;;;;13.77;0.68;;;;;;;20.56;100.00;101297.56;5039194;28;20033;-50
2023/08/20 04:54:53;;;;;;;7.00;1.17;;;;;;;20.53;100.00;101307.97;5038374;28;20032;-47
2023/08/20 04:57:18;;;;;;;12.35;2.20;;;;;;;20.48;100.00;101303.28;5031369;28;20124;-47
2023/08/20 04:59:45;;;;;;;11.82;2.10;;;;;;;20.47;100.00;101307.00;5032956;28;20036;-44
2023/08/20 05:02:12;;;;;;;5.43;1.48;;;;;;;20.43;100.00;101319.34;5049211;28;20490;-46
2023/08/20 05:04:37;;;;;;;7.25;1.08;;;;;;;20.45;100.00;101298.38;5047480;28;20029;-47
2023/08/20 05:07:03;;;;;;;3.55;1.13;;;;;;;20.53;100.00;101305.28;5035780;28;20071;-48
2023/08/20 05:09:28;;;;;;;7.60;0.93;;;;;;;20.53;100.00;101313.34;5037464;28;20409;-45
2023/08/20 05:11:54;;;;;;;8.77;0.95;;;;;;;20.39;100.00;101318.97;5040147;28;20041;-50
2023/08/20 05:14:19;;;;;;;6.28;1.98;;;;;;;20.55;100.00;101314.78;5032560;28;20026;-49
2023/08/20 05:16:44;;;;;;;10.25;1.15;;;;;;;20.54;100.00;101325.75;5031239;28;20017;-47
2023/08/20 05:19:10;;;;;;;7.60;2.03;;;;;;;20.54;100.00;101326.59;5039539;28;20059;-47
2023/08/20 05:21:35;;;;;;;4.85;0.93;;;;;;;20.54;100.00;101328.44;5035507;28;20163;-47
2023/08/20 05:24:01;;;;;;;7.07;1.02;;;;;;;20.45;100.00;101336.09;5034711;28;20032;-49
2023/08/20 05:26:26;;;;;;;4.35;0.93;;;;;;;20.59;100.00;101331.28;5039619;28;20029;-49
2023/08/20 05:28:51;;;;;;;19.58;2.67;;;;;;;20.69;100.00;101328.81;5028758;28;20475;-44
2023/08/20 05:31:16;;;;;;;5.65;1.55;;;;;;;20.79;100.00;101331.72;5035043;28;20414;-49
2023/08/20 05:33:42;;;;;;;9.02;2.17;;;;;;;20.79;100.00;101342.50;5040509;28;20495;-48
2023/08/20 05:36:07;;;;;;;10.88;1.88;;;;;;;20.80;100.00;101337.91;5030792;28;20112;-47
2023/08/20 05:38:32;;;;;;;3.25;1.13;;;;;;;20.77;100.00;101352.69;5034006;28;20044;-45
2023/08/20 05:40:58;;;;;;;4.57;0.57;;;;;;;20.75;100.00;101345.91;5032450;28;20144;-45
2023/08/20 05:43:23;;;;;;;3.55;1.33;;;;;;;20.63;100.00;101348.63;5039906;28;20485;-46
2023/08/20 05:45:48;;;;;;;7.30;1.23;;;;;;;20.58;100.00;101352.03;5035379;28;20079;-48
2023/08/20 05:48:14;;;;;;;6.45;1.27;;;;;;;20.55;100.00;101357.88;5044615;28;20033;-48
2023/08/20 05:50:39;;;;;;;3.95;0.52;;;;;;;20.68;100.00;101354.13;5040175;28;20032;-49
2023/08/20 05:53:04;;;;;;;5.32;1.42;;;;;;;20.70;100.00;101362.75;5050112;28;20040;-47
2023/08/20 05:55:30;;;;;;;10.77;0.90;;;;;;;20.75;100.00;101351.28;5035141;28;20438;-50
2023/08/20 05:57:55;;;;;;;7.50;1.00;;;;;;;20.58;100.00;101362.81;5034558;28;20060;-51
2023/08/20 06:00:21;;;;;;;7.95;1.30;;;;;;;20.74;100.00;101355.03;5035882;28;20199;-47
2023/08/20 06:02:46;;;;;;;3.60;0.77;;;;;;;20.78;100.00;101356.19;5040845;28;20075;-45
2023/08/20 06:05:11;;;;;;;6.60;1.75;;;;;;;20.72;100.00;101362.53;5047377;28;20029;-48
2023/08/20 06:07:37;;;;;;;8.77;0.73;;;;;;;20.76;100.00;101353.75;5037499;28;20882;-48
2023/08/20 06:10:02;;;;;;;8.13;2.00;;;;;;;20.76;100.00;101358.31;5035727;28;20028;-51
2023/08/20 06:12:28;;;;;;;5.95;0.80;;;;;;;20.64;100.00;101361.03;5046190;28;20052;-48
2023/08/20 06:14:53;;;;;;;12.85;2.15;;;;;;;20.91;100.00;101358.66;5042177;28;20104;-46
2023/08/20 06:17:18;;;;;;;2.75;0.35;;;;;;;21.10;100.00;101365.50;5027639;28;20041;-48
2023/08/20 06:19:44;;;;;;;3.97;0.95;;;;;;;21.09;100.00;101358.47;5035339;28;20129;-48
2023/08/20 06:22:10;;;;;;;4.47;0.50;;;;;;;21.04;100.00;101366.47;5040580;28;20040;-47
2023/08/20 06:24:35;;;;;;;5.55;0.75;;;;;;;21.17;100.00;101372.59;5036487;28;20044;-47
2023/08/20 06:27:01;;;;;;;6.30;0.93;;;;;;;21.25;100.00;101369.56;5039721;28;20033;-51
2023/08/20 06:29:26;;;;;;;3.33;0.50;;;;;;;21.24;100.00;101367.91;5034839;28;20079;-46
2023/08/20 06:31:51;;;;;;;5.72;1.65;;;;;;;21.31;100.00;101372.09;5042214;28;20033;-51
2023/08/20 06:34:17;;;;;;;8.38;1.33;;;;;;;21.17;100.00;101373.44;5039196;28;20044;-48
2023/08/20 06:36:43;;;;;;;5.90;1.17;;;;;;;21.22;100.00;101378.09;5047976;28;20082;-46
2023/08/20 06:39:08;;;;;;;5.35;1.00;;;;;;;21.25;100.00;101375.75;5035311;28;20035;-49
2023/08/20 06:41:35;;;;;;;6.10;1.27;;;;;;;21.36;100.00;101374.06;5039674;28;20386;-46
2023/08/20 06:44:01;;;;;;;5.78;1.25;;;;;;;21.30;100.00;101383.13;5037509;28;20112;-44
2023/08/20 06:46:26;;;;;;;9.60;2.00;;;;;;;21.31;100.00;101382.06;5031254;28;20132;-45
2023/08/20 06:48:52;;;;;;;2.85;0.85;;;;;;;21.41;100.00;101381.47;5033017;28;20449;-48
2023/08/20 06:51:21;;;;;;;5.88;1.13;;;;;;;21.50;100.00;101385.41;5037670;28;20044;-49
2023/08/20 06:53:47;;;;;;;9.65;1.25;;;;;;;21.54;100.00;101370.38;5039842;28;20382;-48
2023/08/20 06:56:12;;;;;;;6.53;1.65;;;;;;;21.66;100.00;101384.66;5039681;28;20047;-49
2023/08/20 06:58:39;;;;;;;5.75;0.98;;;;;;;21.71;100.00;101390.13;5042124;28;20765;-48
2023/08/20 07:01:07;;;;;;;5.43;1.15;;;;;;;21.67;100.00;101390.84;5027720;28;20470;-47
2023/08/20 07:03:38;;;;;;;3.08;0.90;;;;;;;21.59;100.00;101391.25;5039114;28;20494;-48
2023/08/20 07:06:04;;;;;;;6.07;0.97;;;;;;;21.80;100.00;101395.94;5036844;28;20029;-45
2023/08/20 07:08:29;;;;;;;11.25;1.55;;;;;;;21.77;100.00;101396.44;5032130;28;20475;-50
2023/08/20 07:10:55;;;;;;;2.22;0.75;;;;;;;21.86;100.00;101394.13;5038132;28;20037;-46
2023/08/20 07:13:20;;;;;;;4.35;1.05;;;;;;;21.92;100.00;101399.41;5043182;28;20065;-49
2023/08/20 07:15:46;;;;;;;8.68;2.10;;;;;;;22.00;100.00;101404.38;5034234;28;20422;-45
2023/08/20 07:18:13;;;;;;;6.55;1.58;;;;;;;21.95;100.00;101404.28;5038642;28;20112;-48
2023/08/20 07:20:39;;;;;;;5.50;1.50;;;;;;;22.06;100.00;101393.66;5037056;28;20124;-48
2023/08/20 07:23:04;;;;;;;9.85;1.25;;;;;;;21.99;100.00;101405.47;5037694;28;20505;-46
2023/08/20 07:25:30;;;;;;;5.72;0.40;;;;;;;21.91;100.00;101408.53;5042599;28;20453;-46
2023/08/20 07:27:59;;;;;;;3.10;0.95;;;;;;;21.99;100.00;101399.22;5038251;28;20025;-46
2023/08/20 07:30:27;;;;;;;6.90;0.93;;;;;;;22.16;100.00;101407.34;5031913;28;20434;-45
2023/08/20 07:32:53;;;;;;;4.30;0.60;;;;;;;22.28;100.00;101402.69;5040916;28;20032;-45
2023/08/20 07:35:18;;;;;;;5.95;0.65;;;;;;;22.39;100.00;101406.38;5040655;28;20082;-46
2023/08/20 07:37:43;;;;;;;3.08;0.28;;;;;;;22.46;100.00;101409.72;5032165;28;20290;-51
2023/08/20 07:40:09;;;;;;;6.63;1.75;;;;;;;22.52;100.00;101413.31;5033342;28;20119;-47
2023/08/20 07:42:36;;;;;;;3.25;1.15;;;;;;;22.38;100.00;101416.38;5033297;28;20136;-47
2023/08/20 07:45:02;;;;;;;7.20;0.93;;;;;;;22.59;100.00;101408.56;5037139;28;20031;-47
2023/08/20 07:47:28;;;;;;;6.80;0.63;;;;;;;22.83;100.00;101404.56;5034716;28;20024;-47
2023/08/20 07:49:54;;;;;;;6.85;1.45;;;;;;;22.82;100.00;101396.69;5033027;28;20032;-51
2023/08/20 07:52:20;;;;;;;8.15;0.43;;;;;;;22.75;100.00;101396.88;5037185;28;20033;-49
2023/08/20 07:54:45;;;;;;;4.38;0.50;;;;;;;22.64;100.00;101395.94;5038312;28;20379;-45
2023/08/20 07:57:10;;;;;;;4.22;0.45;;;;;;;22.52;100.00;101389.00;5038630;28;20651;-49
2023/08/20 07:59:36;;;;;;;4.75;0.25;;;;;;;22.59;100.00;101397.75;5033777;28;20025;-44
2023/08/20 08:02:01;;;;;;;2.67;0.03;;;;;;;22.50;100.00;101400.03;5029343;28;20132;-46
2023/08/20 08:04:27;;;;;;;4.80;1.38;;;;;;;22.59;100.00;101395.84;5045055;28;20580;-47
2023/08/20 08:06:52;;;;;;;5.75;0.73;;;;;;;22.81;100.00;101395.88;5031547;28;20017;-47
2023/08/20 08:09:25;;;;;;;4.45;0.60;;;;;;;23.00;100.00;101390.19;5031941;28;20137;-52
2023/08/20 08:11:50;;;;;;;1.00;0.52;;;;;;;23.11;100.00;101389.25;5032753;28;20029;-47
2023/08/20 08:14:16;;;;;;;5.80;1.05;;;;;;;23.25;100.00;101393.19;5040179;28;20029;-48
2023/08/20 08:16:41;;;;;;;5.32;1.50;;;;;;;23.30;100.00;101398.66;5031946;28;20017;-50
2023/08/20 08:19:07;;;;;;;9.23;0.75;;;;;;;23.39;100.00;101396.34;5035759;28;20028;-50
2023/08/20 08:21:32;;;;;;;4.10;0.77;;;;;;;23.51;100.00;101396.16;5032100;28;20513;-46
2023/08/20 08:23:57;;;;;;;2.60;0.63;;;;;;;23.82;100.00;101399.19;5028843;28;20711;-48
2023/08/20 08:26:23;;;;;;;4.20;0.55;;;;;;;23.78;100.00;101389.97;5044784;28;20025;-50
2023/08/20 08:28:48;;;;;;;3.03;0.77;;;;;;;24.06;100.00;101389.66;5041922;28;20607;-47
2023/08/20 08:31:13;;;;;;;2.95;0.25;;;;;;;24.37;100.00;101401.53;5031467;28;20363;-47
2023/08/20 08:33:38;;;;;;;3.67;0.50;;;;;;;24.54;100.00;101398.66;5034737;28;20044;-49
2023/08/20 08:36:04;;;;;;;1.67;0.70;;;;;;;24.54;100.00;101395.16;5027668;28;20040;-47
2023/08/20 08:38:29;;;;;;;3.15;0.60;;;;;;;24.78;100.00;101396.38;5029569;28;20025;-45
2023/08/20 08:40:56;;;;;;;1.23;0.25;;;;;;;24.97;100.00;101388.59;5046007;28;20416;-50
2023/08/20 08:43:22;;;;;;;3.75;0.95;;;;;;;24.99;100.00;101402.72;5027920;28;20259;-48
2023/08/20 08:45:50;;;;;;;3.15;0.20;;;;;;;25.09;100.00;101395.66;5034090;28;20027;-49
2023/08/20 08:48:16;;;;;;;2.00;0.25;;;;;;;25.38;100.00;101398.78;5027609;28;20068;-51
2023/08/20 08:50:42;;;;;;;1.17;0.30;;;;;;;25.47;100.00;101391.72;5033237;28;20501;-50
2023/08/20 08:53:08;;;;;;;3.65;0.60;;;;;;;25.75;100.00;101403.19;5039419;28;20028;-48
2023/08/20 08:55:34;;;;;;;2.42;0.45;;;;;;;26.17;100.00;101410.28;5036807;28;20040;-47
2023/08/20 08:57:59;;;;;;;3.10;0.65;;;;;;;25.96;100.00;101398.59;5031797;28;20403;-48
2023/08/20 09:00:24;;;;;;;4.03;0.82;;;;;;;25.86;100.00;101413.81;5027262;28;20889;-49
2023/08/20 09:02:50;;;;;;;1.40;0.20;;;;;;;26.25;100.00;101417.88;5040652;28;20068;-46
2023/08/20 09:05:15;;;;;;;3.40;0.30;;;;;;;25.78;100.00;101421.66;5040914;28;20504;-47
2023/08/20 09:07:43;;;;;;;4.00;0.50;;;;;;;25.54;100.00;101424.88;5033906;28;20525;-55
2023/08/20 09:10:09;;;;;;;3.60;0.20;;;;;;;25.12;100.00;101417.69;5030686;28;20466;-48
2023/08/20 09:12:34;;;;;;;0.95;0.65;;;;;;;24.90;100.00;101425.16;5055354;28;20063;-45
2023/08/20 09:15:00;;;;;;;2.72;0.10;;;;;;;24.42;100.00;101419.72;5039938;28;20392;-45
2023/08/20 09:17:29;;;;;;;2.28;0.30;;;;;;;24.40;100.00;101423.78;5037473;28;20029;-52
2023/08/20 09:19:58;;;;;;;1.80;0.22;;;;;;;24.41;100.00;101420.78;5031802;28;20055;-45
2023/08/20 09:22:24;;;;;;;2.63;0.30;;;;;;;24.73;100.00;101414.50;5036420;28;20498;-47
2023/08/20 09:24:56;;;;;;;1.27;0.30;;;;;;;24.75;100.00;101417.78;5045126;28;20031;-46
2023/08/20 09:27:23;;;;;;;3.85;0.20;;;;;;;24.64;100.00;101421.50;5047419;28;20034;-46
2023/08/20 09:29:50;;;;;;;6.22;0.40;;;;;;;24.48;100.00;101431.44;5040235;28;20033;-49
2023/08/20 09:32:21;;;;;;;5.43;0.80;;;;;;;24.28;100.00;101432.09;5038982;28;20048;-45
2023/08/20 09:34:50;;;;;;;;;;;;;;;24.27;100.00;101423.13;5040488;28;20036;-45
2023/08/20 09:37:19;;;;;;;5.78;0.20;;;;;;;24.20;100.00;101422.53;5028665;28;19966;-45
2023/08/20 09:39:45;;;;;;;1.98;0.25;;;;;;;24.39;100.00;101431.06;5038310;28;20042;-51
2023/08/20 09:42:11;;;;;;;3.78;0.75;;;;;;;24.32;100.00;101425.88;5032366;28;20394;-46
2023/08/20 09:44:39;;;;;;;3.85;0.57;;;;;;;24.62;100.00;101431.78;5046714;28;20029;-48
2023/08/20 09:47:14;;;;;;;3.88;0.70;;;;;;;24.62;100.00;101431.78;5043365;28;20482;-47
2023/08/20 09:49:44;;;;;;;2.83;0.15;;;;;;;24.35;100.00;101433.50;5040898;28;20546;-48
2023/08/20 09:52:12;;;;;;;2.65;0.68;;;;;;;24.43;100.00;101432.19;5031639;28;20037;-47
2023/08/20 09:54:56;;;;;;;1.83;0.30;;;;;;;25.25;100.00;101421.81;5033485;28;20028;-46
2023/08/20 09:57:38;;;;;;;3.83;0.35;;;;;;;25.94;100.00;101427.94;5035576;28;20028;-48
2023/08/20 10:00:13;;;;;;;4.68;0.40;;;;;;;25.95;100.00;101429.59;5029407;28;20021;-47
2023/08/20 10:02:39;;;;;;;1.38;0.10;;;;;;;25.87;100.00;101420.06;5037596;28;20052;-47
2023/08/20 10:05:12;;;;;;;4.47;0.47;;;;;;;26.38;100.00;101422.75;5036150;28;20026;-47
2023/08/20 10:07:38;;;;;;;1.50;0.32;;;;;;;26.76;100.00;101418.59;5042081;28;20064;-50
2023/08/20 10:10:06;;;;;;;0.85;0.10;;;;;;;26.93;100.00;101420.19;5033264;28;20119;-50
2023/08/20 10:12:32;;;;;;;3.50;0.35;;;;;;;26.98;100.00;101422.91;5036264;28;20033;-48
2023/08/20 10:14:58;;;;;;;1.08;0.32;;;;;;;27.24;100.00;101425.53;5048884;28;20032;-48
2023/08/20 10:17:24;;;;;;;4.90;0.52;;;;;;;27.41;100.00;101423.25;5035157;28;20037;-48
2023/08/20 10:19:53;;;;;;;1.95;0.28;;;;;;;27.61;99.87;101409.50;5041454;28;20033;-47
2023/08/20 10:22:19;;;;;;;3.10;0.52;;;;;;;27.69;99.21;101412.72;5032820;28;20156;-54
2023/08/20 10:24:50;;;;;;;2.08;0.00;;;;;;;27.56;97.97;101409.53;5040608;28;20146;-51
2023/08/20 10:27:31;;;;;;;;;;;;;;;27.88;93.27;101405.53;5032681;28;20040;-45
2023/08/20 10:29:58;;;;;;;1.50;0.03;;;;;;;27.17;96.31;101413.03;5038319;28;20212;-51
2023/08/20 10:32:49;;;;;;;1.75;0.10;;;;;;;27.28;95.92;101418.41;5038661;28;20508;-50
2023/08/20 10:35:17;;;;;;;1.33;0.15;;;;;;;27.23;98.08;101423.88;5033074;28;20532;-47
2023/08/20 10:38:11;;;;;;;2.85;0.30;;;;;;;26.83;94.10;101403.91;5042360;28;20119;-48
2023/08/20 10:40:57;;;;;;;2.92;0.20;;;;;;;26.86;96.41;101411.50;5030912;28;20036;-48
2023/08/20 10:43:25;;;;;;;0.30;0.10;;;;;;;27.01;93.74;101411.44;5038834;28;20366;-46
2023/08/20 10:46:02;;;;;;;3.40;0.10;;;;;;;27.19;94.62;101408.13;5037962;28;20036;-47
2023/08/20 10:48:27;;;;;;;1.27;0.40;;;;;;;26.52;93.06;101412.16;5033927;28;20426;-50
2023/08/20 10:50:53;;;;;;;3.20;0.20;;;;;;;27.13;96.04;101402.94;5042922;28;20517;-47
2023/08/20 10:53:22;;;;;;;2.47;0.60;;;;;;;27.71;98.46;101399.63;5040226;28;20033;-47
2023/08/20 10:55:48;;;;;;;2.08;0.00;;;;;;;29.02;93.23;101403.28;5038606;28;20486;-46
2023/08/20 10:58:14;;;;;;;5.32;1.15;;;;;;;29.13;88.53;101400.13;5029028;28;20040;-47
2023/08/20 11:00:39;;;;;;;1.05;0.10;;;;;;;29.63;87.44;101405.13;5028158;28;20025;-53
2023/08/20 11:03:05;;;;;;;3.58;0.60;;;;;;;29.14;82.88;101404.47;5030900;28;20049;-49
2023/08/20 11:05:31;;;;;;;2.47;0.10;;;;;;;29.09;87.14;101409.19;5033895;28;20028;-48
2023/08/20 11:07:57;;;;;;;0.88;0.15;;;;;;;29.16;88.18;101387.00;5032764;28;20036;-46
2023/08/20 11:10:23;;;;;;;0.57;0.20;;;;;;;29.19;85.97;101389.13;5043324;28;20043;-48
2023/08/20 11:12:49;;;;;;;1.65;0.00;;;;;;;29.26;87.03;101397.78;5040479;28;20363;-48
2023/08/20 11:15:14;;;;;;;1.17;0.20;;;;;;;29.29;85.38;101383.53;5029267;28;20029;-45